createdAt,value
2022-11-29T00:03:01.181Z,101488.25
2022-11-29T00:06:09.306Z,101500.38
2022-11-29T00:09:15.037Z,101488.28
2022-11-29T00:12:18.761Z,101483.94
2022-11-29T00:15:27.226Z,101483.94
2022-11-29T00:18:30.938Z,101481.34
2022-11-29T00:21:34.642Z,101494.31
2022-11-29T00:24:39.738Z,101490.00
2022-11-29T00:27:43.346Z,101493.47
2022-11-29T00:30:47.338Z,101490.88
2022-11-29T00:33:52.354Z,101495.19
2022-11-29T00:36:56.081Z,101493.47
2022-11-29T00:40:01.254Z,101502.97
2022-11-29T00:43:04.919Z,101503.84
2022-11-29T00:46:09.524Z,101496.06
2022-11-29T00:49:13.342Z,101496.91
2022-11-29T00:52:16.965Z,101505.59
2022-11-29T00:55:22.185Z,101497.81
2022-11-29T00:58:25.798Z,101493.47
2022-11-29T01:01:29.502Z,101494.34
2022-11-29T01:04:33.178Z,101493.47
2022-11-29T01:07:36.876Z,101497.78
2022-11-29T01:10:43.071Z,101487.44
2022-11-29T01:13:47.437Z,101501.25
2022-11-29T01:16:51.052Z,101497.81
2022-11-29T01:19:54.911Z,101499.53
2022-11-29T01:22:58.768Z,101505.59
2022-11-29T01:26:06.895Z,101507.31
2022-11-29T01:29:14.433Z,101509.06
2022-11-29T01:32:18.062Z,101510.81
2022-11-29T01:35:21.694Z,101512.53
2022-11-29T01:38:25.293Z,101519.44
2022-11-29T01:41:33.277Z,101522.03
2022-11-29T01:45:06.708Z,101522.88
2022-11-29T01:48:11.680Z,101528.06
2022-11-29T01:51:16.081Z,101524.63
2022-11-29T01:54:21.311Z,101528.06
2022-11-29T01:57:27.758Z,101532.41
2022-11-29T02:00:31.578Z,101528.91
2022-11-29T02:03:35.284Z,101526.38
2022-11-29T02:06:40.825Z,101523.78
2022-11-29T02:09:44.580Z,101522.88
2022-11-29T02:13:02.942Z,101528.97
2022-11-29T02:16:16.934Z,101524.63
2022-11-29T02:20:07.148Z,101529.81
2022-11-29T02:24:13.458Z,101527.19
2022-11-29T02:28:22.210Z,101528.06
2022-11-29T02:32:08.731Z,101531.56
2022-11-29T02:35:36.851Z,101529.75
2022-11-29T02:39:12.661Z,101539.34
2022-11-29T02:42:56.855Z,101536.69
2022-11-29T02:46:20.013Z,101541.91
2022-11-29T02:49:53.336Z,101548.84
2022-11-29T02:53:10.698Z,101547.13
2022-11-29T02:56:28.349Z,101547.13
2022-11-29T03:00:00.473Z,101543.66
2022-11-29T03:03:18.167Z,101553.19
2022-11-29T03:06:34.745Z,101560.13
2022-11-29T03:09:45.432Z,101555.75
2022-11-29T03:12:54.047Z,101555.75
2022-11-29T03:16:10.704Z,101562.72
2022-11-29T03:19:37.906Z,101560.94
2022-11-29T03:22:53.377Z,101568.75
2022-11-29T03:26:08.731Z,101567.84
2022-11-29T03:29:28.101Z,101572.19
2022-11-29T03:32:43.659Z,101577.38
2022-11-29T03:35:57.868Z,101581.72
2022-11-29T03:39:09.030Z,101579.13
2022-11-29T03:42:22.951Z,101577.41
2022-11-29T03:45:34.002Z,101579.97
2022-11-29T03:48:45.977Z,101587.75
2022-11-29T03:52:04.126Z,101581.72
2022-11-29T03:55:31.633Z,101577.38
2022-11-29T03:58:55.675Z,101583.41
2022-11-29T04:02:50.717Z,101589.50
2022-11-29T04:06:22.837Z,101582.56
2022-11-29T04:09:53.203Z,101595.56
2022-11-29T04:13:29.204Z,101593.84
2022-11-29T04:17:28.932Z,101598.13
2022-11-29T04:21:26.403Z,101595.53
2022-11-29T04:25:07.355Z,101607.66
2022-11-29T04:29:01.342Z,101605.94
2022-11-29T04:32:58.291Z,101608.53
2022-11-29T04:36:51.433Z,101612.84
2022-11-29T04:40:27.041Z,101619.81
2022-11-29T04:44:10.503Z,101618.03
2022-11-29T04:47:44.020Z,101625.84
2022-11-29T04:51:05.712Z,101622.41
2022-11-29T04:54:21.898Z,101627.59
2022-11-29T04:57:38.397Z,101631.03
2022-11-29T05:00:56.526Z,101636.22
2022-11-29T05:04:15.061Z,101636.22
2022-11-29T05:07:33.041Z,101641.41
2022-11-29T05:10:49.547Z,101645.78
2022-11-29T05:14:03.165Z,101640.59
2022-11-29T05:17:34.703Z,101639.69
2022-11-29T05:20:54.149Z,101644.88
2022-11-29T05:24:18.863Z,101650.91
2022-11-29T05:27:39.794Z,101652.66
2022-11-29T05:31:19.859Z,101650.91
2022-11-29T05:34:46.821Z,101648.31
2022-11-29T05:37:57.633Z,101656.94
2022-11-29T05:41:24.520Z,101665.59
2022-11-29T05:44:39.166Z,101667.34
2022-11-29T05:47:52.125Z,101666.47
2022-11-29T05:51:18.121Z,101670.78
2022-11-29T05:54:46.443Z,101684.63
2022-11-29T05:58:17.799Z,101682.00
2022-11-29T06:01:29.977Z,101682.88
2022-11-29T06:04:59.910Z,101691.56
2022-11-29T06:08:12.322Z,101701.09
2022-11-29T06:11:25.859Z,101696.75
2022-11-29T06:14:55.491Z,101700.22
2022-11-29T06:18:18.398Z,101707.13
2022-11-29T06:21:39.143Z,101703.69
2022-11-29T06:25:17.252Z,101707.13
2022-11-29T06:28:41.180Z,101715.75
2022-11-29T06:31:53.795Z,101713.19
2022-11-29T06:35:05.806Z,101713.19
2022-11-29T06:38:22.470Z,101715.78
2022-11-29T06:41:27.039Z,101720.97
2022-11-29T06:44:34.034Z,101720.94
2022-11-29T06:47:46.035Z,101724.41
2022-11-29T06:51:01.929Z,101732.19
2022-11-29T06:54:25.445Z,101745.13
2022-11-29T06:57:44.850Z,101739.16
2022-11-29T07:01:04.531Z,101743.47
2022-11-29T07:04:46.250Z,101746.06
2022-11-29T07:07:51.360Z,101747.75
2022-11-29T07:10:56.212Z,101746.94
2022-11-29T07:14:00.818Z,101751.25
2022-11-29T07:17:22.196Z,101754.69
2022-11-29T07:20:37.006Z,101749.53
2022-11-29T07:23:53.098Z,101758.16
2022-11-29T07:27:07.093Z,101758.13
2022-11-29T07:30:16.117Z,101765.09
2022-11-29T07:33:35.751Z,101770.28
2022-11-29T07:36:50.887Z,101772.94
2022-11-29T07:40:04.042Z,101769.41
2022-11-29T07:43:27.074Z,101765.09
2022-11-29T07:46:30.941Z,101772.94
2022-11-29T07:49:36.177Z,101772.94
2022-11-29T07:52:39.917Z,101777.22
2022-11-29T07:55:43.803Z,101785.00
2022-11-29T07:58:47.871Z,101789.34
2022-11-29T08:01:51.725Z,101790.22
2022-11-29T08:04:57.162Z,101789.34
2022-11-29T08:08:01.378Z,101785.03
2022-11-29T08:11:12.177Z,101794.56
2022-11-29T08:14:15.866Z,101786.78
2022-11-29T08:17:19.788Z,101790.31
2022-11-29T08:20:25.389Z,101798.94
2022-11-29T08:23:29.048Z,101798.97
2022-11-29T08:26:32.790Z,101801.53
2022-11-29T08:29:36.603Z,101799.75
2022-11-29T08:32:40.128Z,101795.47
2022-11-29T08:35:45.141Z,101801.56
2022-11-29T08:38:50.995Z,101812.81
2022-11-29T08:41:56.286Z,101819.00
2022-11-29T08:45:00.090Z,101817.25
2022-11-29T08:48:03.715Z,101813.69
2022-11-29T08:51:08.962Z,101817.19
2022-11-29T08:54:14.258Z,101819.78
2022-11-29T08:57:39.144Z,101821.53
2022-11-29T09:00:47.026Z,101825.91
2022-11-29T09:04:07.698Z,101821.59
2022-11-29T09:07:13.958Z,101829.38
2022-11-29T09:10:17.677Z,101825.97
2022-11-29T09:13:21.299Z,101832.94
2022-11-29T09:16:28.160Z,101832.94
2022-11-29T09:19:31.971Z,101832.94
2022-11-29T09:22:36.966Z,101839.88
2022-11-29T09:25:40.940Z,101845.09
2022-11-29T09:28:44.851Z,101853.81
2022-11-29T09:31:48.639Z,101851.22
2022-11-29T09:34:52.266Z,101853.75
2022-11-29T09:37:57.241Z,101859.81
2022-11-29T09:41:16.565Z,101856.34
2022-11-29T09:44:32.286Z,101854.56
2022-11-29T09:48:12.305Z,101865.06
2022-11-29T09:51:29.110Z,101865.06
2022-11-29T09:54:49.283Z,101863.28
2022-11-29T09:57:56.685Z,101863.41
2022-11-29T10:01:07.821Z,101866.00
2022-11-29T10:04:20.417Z,101877.25
2022-11-29T10:07:34.618Z,101870.28
2022-11-29T10:10:45.934Z,101868.53
2022-11-29T10:13:57.662Z,101868.63
2022-11-29T10:17:13.103Z,101864.31
2022-11-29T10:20:21.517Z,101873.84
2022-11-29T10:23:32.446Z,101866.09
2022-11-29T10:26:38.615Z,101870.47
2022-11-29T10:29:42.218Z,101863.53
2022-11-29T10:32:50.117Z,101867.03
2022-11-29T10:35:59.411Z,101867.88
2022-11-29T10:39:13.017Z,101873.09
2022-11-29T10:42:40.131Z,101860.16
2022-11-29T10:45:50.752Z,101867.91
2022-11-29T10:48:55.384Z,101862.72
2022-11-29T10:51:59.245Z,101868.00
2022-11-29T10:55:03.999Z,101861.97
2022-11-29T10:58:17.454Z,101862.84
2022-11-29T11:01:21.360Z,101861.03
2022-11-29T11:04:35.616Z,101862.78
2022-11-29T11:07:40.054Z,101862.81
2022-11-29T11:10:58.617Z,101861.88
2022-11-29T11:14:20.695Z,101856.75
2022-11-29T11:17:27.497Z,101854.22
2022-11-29T11:20:33.943Z,101856.75
2022-11-29T11:23:43.020Z,101858.53
2022-11-29T11:26:47.327Z,101862.91
2022-11-29T11:29:54.499Z,101868.97
2022-11-29T11:33:20.547Z,101870.66
2022-11-29T11:36:27.231Z,101866.31
2022-11-29T11:39:33.731Z,101874.19
2022-11-29T11:42:42.801Z,101869.81
2022-11-29T11:45:55.590Z,101868.09
2022-11-29T11:48:59.989Z,101873.31
2022-11-29T11:52:07.999Z,101875.97
2022-11-29T11:55:31.621Z,101875.13
2022-11-29T11:58:40.530Z,101876.81
2022-11-29T12:01:45.620Z,101880.31
2022-11-29T12:04:49.502Z,101882.06
2022-11-29T12:08:07.943Z,101880.31
2022-11-29T12:11:17.094Z,101878.56
2022-11-29T12:14:33.898Z,101879.41
2022-11-29T12:17:45.339Z,101881.16
2022-11-29T12:20:57.249Z,101885.53
2022-11-29T12:24:17.623Z,101887.22
2022-11-29T12:27:21.307Z,101888.09
2022-11-29T12:30:25.723Z,101884.59
2022-11-29T12:33:46.285Z,101889.88
2022-11-29T12:36:58.842Z,101898.53
2022-11-29T12:40:14.494Z,101904.56
2022-11-29T12:43:37.413Z,101902.88
2022-11-29T12:46:45.599Z,101896.78
2022-11-29T12:50:05.102Z,101901.13
2022-11-29T12:53:29.312Z,101904.59
2022-11-29T12:56:45.089Z,101907.25
2022-11-29T13:00:10.568Z,101908.09
2022-11-29T13:03:25.271Z,101901.16
2022-11-29T13:06:42.751Z,101904.66
2022-11-29T13:10:18.569Z,101904.66
2022-11-29T13:13:36.421Z,101909.84
2022-11-29T13:16:56.254Z,101913.31
2022-11-29T13:20:10.876Z,101910.69
2022-11-29T13:23:45.436Z,101917.66
2022-11-29T13:26:54.409Z,101920.25
2022-11-29T13:30:01.644Z,101920.25
2022-11-29T13:33:17.937Z,101920.25
2022-11-29T13:36:36.047Z,101922.84
2022-11-29T13:40:02.731Z,101913.31
2022-11-29T13:43:19.386Z,101922.00
2022-11-29T13:46:35.120Z,101921.16
2022-11-29T13:49:58.734Z,101916.81
2022-11-29T13:53:07.621Z,101920.25
2022-11-29T13:56:43.140Z,101915.06
2022-11-29T13:59:51.057Z,101916.75
2022-11-29T14:02:56.147Z,101926.31
2022-11-29T14:06:18.523Z,101919.34
2022-11-29T14:09:29.336Z,101924.53
2022-11-29T14:12:41.066Z,101925.38
2022-11-29T14:15:45.455Z,101923.69
2022-11-29T14:19:22.500Z,101928.00
2022-11-29T14:22:26.215Z,101926.19
2022-11-29T14:28:55.972Z,101937.44
2022-11-29T14:32:01.170Z,101940.03
2022-11-29T14:35:18.159Z,101940.91
2022-11-29T14:38:31.659Z,101951.31
2022-11-29T14:41:55.351Z,101952.13
2022-11-29T14:45:04.911Z,101947.78
2022-11-29T14:48:28.007Z,101946.94
2022-11-29T14:51:34.552Z,101957.34
2022-11-29T14:54:55.427Z,101953.88
2022-11-29T14:58:22.303Z,101962.53
2022-11-29T15:01:27.613Z,101958.22
2022-11-29T15:04:36.507Z,101957.31
2022-11-29T15:07:45.443Z,101951.25
2022-11-29T15:10:53.707Z,101960.75
2022-11-29T15:14:06.465Z,101962.47
2022-11-29T15:17:27.585Z,101966.78
2022-11-29T15:20:51.436Z,101961.59
2022-11-29T15:24:03.909Z,101965.94
2022-11-29T15:27:07.580Z,101971.13
2022-11-29T15:30:28.550Z,101973.69
2022-11-29T15:33:37.990Z,101978.91
2022-11-29T15:36:45.394Z,101976.31
2022-11-29T15:39:49.135Z,101978.91
2022-11-29T15:43:00.158Z,101985.78
2022-11-29T15:46:04.088Z,101984.97
2022-11-29T15:49:22.948Z,101984.94
2022-11-29T15:52:31.937Z,101989.25
2022-11-29T15:55:35.924Z,101988.38
2022-11-29T15:58:40.349Z,101984.88
2022-11-29T16:01:47.507Z,101990.97
2022-11-29T16:04:59.355Z,101997.88
2022-11-29T16:08:08.583Z,101990.91
2022-11-29T16:11:21.882Z,101994.41
2022-11-29T16:14:29.249Z,101999.59
2022-11-29T16:17:36.327Z,102007.38
2022-11-29T16:20:41.944Z,102009.97
2022-11-29T16:23:46.791Z,102010.84
2022-11-29T16:26:52.499Z,102015.16
2022-11-29T16:29:57.100Z,102011.69
2022-11-29T16:33:03.487Z,102013.44
2022-11-29T16:36:18.022Z,102011.66
2022-11-29T16:39:25.319Z,102013.41
2022-11-29T16:42:31.864Z,102018.59
2022-11-29T16:45:38.570Z,102016.00
2022-11-29T16:48:42.445Z,102020.38
2022-11-29T16:51:49.203Z,102016.88
2022-11-29T16:54:53.145Z,102022.97
2022-11-29T16:57:56.841Z,102024.69
2022-11-29T17:01:01.324Z,102029.00
2022-11-29T17:04:05.031Z,102029.00
2022-11-29T17:07:19.010Z,102025.50
2022-11-29T17:10:26.737Z,102020.34
2022-11-29T17:13:30.431Z,102028.13
2022-11-29T17:16:34.209Z,102023.81
2022-11-29T17:19:38.284Z,102031.63
2022-11-29T17:22:43.551Z,102029.88
2022-11-29T17:25:56.659Z,102037.66
2022-11-29T17:29:00.230Z,102043.69
2022-11-29T17:32:03.787Z,102035.91
2022-11-29T17:35:08.370Z,102036.78
2022-11-29T17:38:13.391Z,102045.44
2022-11-29T17:41:22.187Z,102046.28
2022-11-29T17:44:25.765Z,102051.47
2022-11-29T17:47:29.432Z,102056.63
2022-11-29T17:50:33.121Z,102054.97
2022-11-29T17:53:38.386Z,102069.63
2022-11-29T17:56:42.000Z,102061.84
2022-11-29T17:59:45.876Z,102067.00
2022-11-29T18:02:49.807Z,102068.72
2022-11-29T18:05:53.494Z,102073.91
2022-11-29T18:09:00.499Z,102072.13
2022-11-29T18:12:04.213Z,102074.78
2022-11-29T18:15:08.886Z,102079.97
2022-11-29T18:18:12.517Z,102081.66
2022-11-29T18:21:16.528Z,102086.00
2022-11-29T18:24:23.019Z,102081.69
2022-11-29T18:27:26.830Z,102090.31
2022-11-29T18:30:30.580Z,102092.91
2022-11-29T18:33:34.218Z,102089.47
2022-11-29T18:36:43.023Z,102088.59
2022-11-29T18:39:48.573Z,102093.78
2022-11-29T18:42:52.425Z,102094.59
2022-11-29T18:45:56.104Z,102091.09
2022-11-29T18:49:01.497Z,102093.72
2022-11-29T18:52:06.436Z,102091.94
2022-11-29T18:55:11.596Z,102091.94
2022-11-29T18:58:15.275Z,102099.69
2022-11-29T19:01:21.027Z,102100.53
2022-11-29T19:04:24.843Z,102103.13
2022-11-29T19:07:29.401Z,102106.63
2022-11-29T19:10:34.490Z,102107.50
2022-11-29T19:13:38.969Z,102110.06
2022-11-29T19:16:45.549Z,102106.59
2022-11-29T19:19:49.189Z,102119.56
2022-11-29T19:22:57.473Z,102113.47
2022-11-29T19:26:06.738Z,102118.66
2022-11-29T19:29:11.074Z,102123.88
2022-11-29T19:32:14.975Z,102128.22
2022-11-29T19:35:18.810Z,102123.84
2022-11-29T19:38:22.432Z,102129.06
2022-11-29T19:41:29.882Z,102126.44
2022-11-29T19:44:54.204Z,102133.38
2022-11-29T19:47:57.618Z,102125.63
2022-11-29T19:51:01.569Z,102134.22
2022-11-29T19:54:08.506Z,102142.00
2022-11-29T19:57:13.592Z,102131.66
2022-11-29T20:00:19.174Z,102140.25
2022-11-29T20:03:22.926Z,102140.22
2022-11-29T20:06:30.426Z,102142.81
2022-11-29T20:09:34.384Z,102139.28
2022-11-29T20:12:39.842Z,102140.19
2022-11-29T20:15:43.617Z,102140.22
2022-11-29T20:18:51.089Z,102142.75
2022-11-29T20:21:55.378Z,102148.00
2022-11-29T20:24:59.311Z,102150.53
2022-11-29T20:28:06.863Z,102147.94
2022-11-29T20:31:13.525Z,102159.19
2022-11-29T20:34:18.431Z,102155.75
2022-11-29T20:38:11.434Z,102156.59
2022-11-29T20:41:26.219Z,102157.47
2022-11-29T20:44:39.943Z,102163.56
2022-11-29T20:47:54.611Z,102169.63
2022-11-29T20:51:03.098Z,102171.34
2022-11-29T20:54:06.962Z,102168.72
2022-11-29T20:57:10.918Z,102178.19
2022-11-29T21:00:18.066Z,102173.06
2022-11-29T21:03:23.044Z,102179.97
2022-11-29T21:06:27.995Z,102179.13
2022-11-29T21:09:32.038Z,102173.00
2022-11-29T21:12:36.843Z,102181.63
2022-11-29T21:15:43.892Z,102178.16
2022-11-29T21:18:51.179Z,102180.75
2022-11-29T21:22:13.762Z,102181.63
2022-11-29T21:25:27.664Z,102184.19
2022-11-29T21:28:39.023Z,102180.72
2022-11-29T21:31:44.977Z,102175.53
2022-11-29T21:34:48.857Z,102180.72
2022-11-29T21:37:58.357Z,102186.75
2022-11-29T21:41:02.336Z,102185.88
2022-11-29T21:44:07.758Z,102188.47
2022-11-29T21:47:13.529Z,102187.59
2022-11-29T21:50:17.337Z,102183.28
2022-11-29T21:53:21.010Z,102191.97
2022-11-29T21:56:24.700Z,102185.00
2022-11-29T21:59:28.303Z,102191.97
2022-11-29T22:02:33.573Z,102187.56
2022-11-29T22:05:37.875Z,102191.00
2022-11-29T22:08:43.628Z,102187.53
2022-11-29T22:11:47.506Z,102183.19
2022-11-29T22:14:51.618Z,102181.50
2022-11-29T22:17:57.039Z,102181.47
2022-11-29T22:21:06.654Z,102193.59
2022-11-29T22:24:11.525Z,102187.50
2022-11-29T22:27:18.154Z,102198.78
2022-11-29T22:30:22.293Z,102194.47
2022-11-29T22:33:27.353Z,102206.53
2022-11-29T22:36:31.134Z,102201.38
2022-11-29T22:39:34.879Z,102199.56
2022-11-29T22:42:39.252Z,102203.09
2022-11-29T22:45:42.941Z,102214.34
2022-11-29T22:48:52.800Z,102208.34
2022-11-29T22:51:56.614Z,102221.31
2022-11-29T22:55:04.718Z,102208.28
2022-11-29T22:58:08.878Z,102212.66
2022-11-29T23:01:15.188Z,102213.44
2022-11-29T23:04:20.639Z,102209.13
2022-11-29T23:07:24.362Z,102219.38
2022-11-29T23:10:27.967Z,102222.03
2022-11-29T23:13:32.607Z,102216.00
2022-11-29T23:16:36.531Z,102228.09
2022-11-29T23:19:41.687Z,102227.28
2022-11-29T23:22:45.312Z,102222.88
2022-11-29T23:25:50.649Z,102232.41
2022-11-29T23:28:55.871Z,102238.41
2022-11-29T23:31:59.483Z,102235.00
2022-11-29T23:35:04.647Z,102242.75
2022-11-29T23:38:08.715Z,102240.22
2022-11-29T23:41:13.187Z,102235.00
2022-11-29T23:44:16.784Z,102235.81
2022-11-29T23:47:20.354Z,102234.94
2022-11-29T23:50:25.974Z,102236.69
2022-11-29T23:53:30.766Z,102241.91
2022-11-29T23:56:35.580Z,102233.25
2022-11-29T23:59:39.337Z,102236.72
